Nearby METAR Reports

 

KSJC - San Jose, California, USA
Distance from station: NE 9mi, 14km
Updated: Mon, 22-Jul-2024 8:53am PDT
Clear
Clear
 Wind from varies
Wind: varies 3 mph, 6 km/h
Temperature: 70°F, 21°C
Dew Point: 55°F, 13°C
Humidity: 60%
Barometer: 29.87 inHg, 1011.5 hPa
Clouds: Clear
Visibility: 9 miles, 14 km
2024/07/22 15:53 KSJC 221553Z VRB03KT 9SM CLR 21/13 A2987 RMK AO2 SLP114 T02060128
KRHV - San Jose/Reid, California, USA
Distance from station: ENE 12mi, 19km
Updated: Mon, 22-Jul-2024 9:47am PDT
Clear
Clear
 Wind from calm
Wind: Calm
Temperature: 70°F, 21°C
Dew Point: 55°F, 13°C
Humidity: 60%
Barometer: 29.87 inHg, 1011.5 hPa
Clouds: Clear
Visibility: 10 miles, 16 km
2024/07/22 16:47 KRHV 221647Z 00000KT 10SM SKC 21/13 A2987
 
KPAO - Palo Alto, California, USA
Distance from station: NNW 14mi, 23km
Updated: Mon, 22-Jul-2024 9:47am PDT
Haze, Clear
Haze, Clear
 Wind from N
Wind: N 5 mph, 7 km/h
Temperature: 66°F, 19°C
Dew Point: 59°F, 15°C
Humidity: 78%
Barometer: 29.88 inHg, 1011.9 hPa
Summary: Haze
Clouds: Clear
Visibility: 7 miles, 11 km
2024/07/22 16:47 KPAO 221647Z 01004KT 7SM HZ SKC 19/15 A2988
KSQL - San Carlos Airpo, California, USA
Distance from station: NW 21mi, 34km
Updated: Mon, 22-Jul-2024 9:47am PDT
Clear
Clear
 Wind from N
Wind: N 6 mph, 9 km/h
Temperature: 68°F, 20°C
Dew Point: 59°F, 15°C
Humidity: 73%
Barometer: 29.88 inHg, 1011.9 hPa
Clouds: Clear
Visibility: 10 miles, 16 km
2024/07/22 16:47 KSQL 221647Z 36005KT 10SM CLR 20/15 A2988
 
KE16 - San Martin, California, USA
Distance from station: ESE 27mi, 43km
Updated: Mon, 22-Jul-2024 9:35am PDT
Clear
Clear
 Wind from SE
Wind: SE 8 mph, 13 km/h
Temperature: 61°F, 16°C
Dew Point: 55°F, 13°C
Humidity: 83%
Barometer: 29.91 inHg, 1012.9 hPa
Clouds: Clear
Visibility: 10 miles, 16 km
2024/07/22 16:35 KE16 221635Z AUTO 14007KT 10SM CLR 16/13 A2991 RMK AO2 PWINO PNO
KWVI - Watsonville, California, USA
Distance from station: SSE 27mi, 44km
Updated: Mon, 22-Jul-2024 9:53am PDT
Overcast
Overcast
 Wind from S
Wind: S 6 mph, 9 km/h
Temperature: 57°F, 14°C
Dew Point: 55°F, 13°C
Humidity: 94%
Barometer: 29.92 inHg, 1013.2 hPa
Clouds: Overcast
Visibility: 10 miles, 16 km
Cloud details: Overcast 500 ft
2024/07/22 16:53 KWVI 221653Z AUTO 19005KT 10SM OVC005 14/13 A2992 RMK AO2 SLP130 T01440128
 
KHWD - Hayward, California, USA
Distance from station: N 28mi, 44km
Updated: Mon, 22-Jul-2024 9:54am PDT
Clear
Clear
 Wind from W
Wind: W 6 mph, 9 km/h
Temperature: 68°F, 20°C
Dew Point: 57°F, 14°C
Humidity: 69%
Barometer: 29.86 inHg, 1011.2 hPa
Clouds: Clear
Visibility: 10 miles, 16 km
2024/07/22 16:54 KHWD 221654Z 26005KT 10SM CLR 20/14 A2986 RMK AO2 SLP122 T02000144
KSFO - San Francisco, California, USA
Distance from station: NW 30mi, 49km
Updated: Mon, 22-Jul-2024 9:56am PDT
Few Clouds
Few Clouds
 Wind from NNE
Wind: NNE 7 mph, 11 km/h
Temperature: 64°F, 18°C
Dew Point: 59°F, 15°C
Humidity: 83%
Barometer: 29.87 inHg, 1011.5 hPa
Clouds: Few Clouds
Visibility: 10 miles, 16 km
Cloud details: Few Clouds 1000 ft
2024/07/22 16:56 KSFO 221656Z 03006KT 10SM FEW010 18/15 A2987 RMK AO2 SLP115 T01780150
 
KHAF - Half Moon Bay, California, USA
Distance from station: WNW 31mi, 50km
Updated: Mon, 22-Jul-2024 9:55am PDT
Mist, Overcast
Mist, Overcast
 Wind from S
Wind: S 13 mph, 20 km/h
Temperature: 55°F, 13°C
Dew Point: 55°F, 13°C
Humidity: 100%
Barometer: 29.90 inHg, 1012.5 hPa
Summary: Mist
Clouds: Overcast
Visibility: 6 miles, 10 km
Cloud details: Overcast 400 ft
2024/07/22 16:55 KHAF 221655Z AUTO 18011KT 6SM BR OVC004 13/13 A2990 RMK AO2
KLVK - Livermore, California, USA
Distance from station: NNE 31mi, 51km
Updated: Mon, 22-Jul-2024 9:53am PDT
Clear
Clear
 Wind from calm
Wind: Calm
Temperature: 75°F, 24°C
Dew Point: 57°F, 14°C
Humidity: 54%
Barometer: 29.85 inHg, 1010.8 hPa
Clouds: Clear
Visibility: 9 miles, 14 km
2024/07/22 16:53 KLVK 221653Z 00000KT 9SM CLR 24/14 A2985 RMK AO2 SLP105 T02390139 $
 
KOAK - Oakland, California, USA
Distance from station: NNW 33mi, 53km
Updated: Mon, 22-Jul-2024 9:53am PDT
Clear
Clear
 Wind from WNW
Wind: WNW 7 mph, 11 km/h
Temperature: 68°F, 20°C
Dew Point: 59°F, 15°C
Humidity: 73%
Barometer: 29.88 inHg, 1011.9 hPa
Clouds: Clear
Visibility: 10 miles, 16 km
2024/07/22 16:53 KOAK 221653Z 29006KT 10SM CLR 20/15 A2988 RMK AO2 SLP117 T02000150
KCVH - Hollister Muni, California, USA
Distance from station: SE 42mi, 68km
Updated: Mon, 22-Jul-2024 9:55am PDT
Clear
Clear
 Wind from calm
Wind: Calm
Temperature: 64°F, 18°C
Dew Point: 54°F, 12°C
Humidity: 68%
Barometer: 29.90 inHg, 1012.5 hPa
Clouds: Clear
Visibility: 10 miles, 16 km
2024/07/22 16:55 KCVH 221655Z AUTO 00000KT 10SM CLR 18/12 A2990 RMK A01
 
KSNS - Salinas, California, USA
Distance from station: SSE 48mi, 77km
Updated: Mon, 22-Jul-2024 9:53am PDT
Overcast
Overcast
 Wind from calm
Wind: Calm
Temperature: 59°F, 15°C
Dew Point: 54°F, 12°C
Humidity: 82%
Barometer: 29.91 inHg, 1012.9 hPa
Clouds: Overcast
Visibility: 7 miles, 11 km
Cloud details: Overcast 800 ft
2024/07/22 16:53 KSNS 221653Z 00000KT 7SM OVC008 15/12 A2991 RMK AO2 CIG 006V011 SLP137 T01500122
KMRY - Monterey, California, USA
Distance from station: SSE 49mi, 78km
Updated: Mon, 22-Jul-2024 9:54am PDT
Overcast
Overcast
 Wind from calm
Wind: Calm
Temperature: 57°F, 14°C
Dew Point: 54°F, 12°C
Humidity: 88%
Barometer: 29.92 inHg, 1013.2 hPa
Clouds: Overcast
Visibility: 10 miles, 16 km
Cloud details: Overcast 600 ft
2024/07/22 16:54 KMRY 221654Z 00000KT 10SM OVC006 14/12 A2992 RMK AO2 SLP142 T01440117
 
KCCR - Concord, California, USA
Distance from station: N 50mi, 81km
Updated: Mon, 22-Jul-2024 9:53am PDT
Clear
Clear
 Wind from NW
Wind: NW 5 mph, 7 km/h
Temperature: 73°F, 23°C
Dew Point: 59°F, 15°C
Humidity: 61%
Barometer: 29.85 inHg, 1010.8 hPa
Clouds: Clear
Visibility: 10 miles, 16 km
2024/07/22 16:53 KCCR 221653Z 32004KT 10SM CLR 23/15 A2985 RMK AO2 SLP094 T02330150